Terminal Aerodrome Forecast
Issued by NWS Louisville, KY

Home | Current Version | Previous Version | Text Only | Print | Product List | Glossary On
Versions: 1 2 3 4 5 6 7 8 9 10 11 12 13 14 15
000
FTUS43 KLMK 061540 AAB
TAFBWG
TAF AMD
KBWG 061540Z 0616/0712 03004KT 3SM -RA BR SCT005 OVC018
      TEMPO 0616/0617 1SM RA BR BKN005
     FM061700 30009KT 5SM BR VCSH OVC010
     FM062300 33006KT P6SM OVC015=

USA.gov is the U.S. government's official web portal to all federal, state and local government web resources and services.